Time;durP1;ratioP1;P1;durP2;ratioP2;P2;SDS_P1;SDS_P2;PMS_P1;PMS_P2;Temp;Humidity;BMP_temperature;BMP_pressure;BME280_temperature;BME280_humidity;BME280_pressure;Samples;Min_cycle;Max_cycle;Signal;HPM_P1;HPM_P2
2022/07/24 00:01:33;;;;;;;5.70;3.13;;;17.30;99.90;;;;;;5076433;28;20194;-43
2022/07/24 00:03:58;;;;;;;7.40;3.47;;;17.20;99.90;;;;;;5075902;28;20183;-44
2022/07/24 00:06:24;;;;;;;5.50;3.53;;;17.20;99.90;;;;;;5076756;28;20253;-44
2022/07/24 00:08:50;;;;;;;3.27;2.97;;;17.20;99.90;;;;;;5075889;28;20599;-43
2022/07/24 00:11:16;;;;;;;5.23;3.40;;;17.20;99.90;;;;;;5076028;28;20191;-44
2022/07/24 00:13:41;;;;;;;6.00;3.00;;;17.20;99.90;;;;;;5076157;28;20249;-44
2022/07/24 00:16:07;;;;;;;3.50;3.20;;;17.10;99.90;;;;;;5075831;28;20688;-43
2022/07/24 00:18:33;;;;;;;3.33;3.00;;;17.10;99.90;;;;;;5075822;28;20190;-43
2022/07/24 00:20:58;;;;;;;3.87;3.47;;;17.10;99.90;;;;;;5075789;28;20274;-43
2022/07/24 00:23:24;;;;;;;8.33;3.73;;;17.00;99.90;;;;;;5075985;28;20186;-44
2022/07/24 00:25:51;;;;;;;6.80;4.10;;;17.00;99.90;;;;;;5075578;28;20214;-43
2022/07/24 00:28:16;;;;;;;4.83;3.00;;;17.00;99.90;;;;;;5075567;28;20237;-44
2022/07/24 00:30:42;;;;;;;5.17;3.33;;;17.00;99.90;;;;;;5075560;28;20196;-46
2022/07/24 00:33:08;;;;;;;4.53;2.90;;;17.00;99.90;;;;;;5075608;28;20184;-42
2022/07/24 00:35:33;;;;;;;4.40;3.67;;;17.00;99.90;;;;;;5074070;28;20180;-43
2022/07/24 00:37:59;;;;;;;7.33;3.63;;;17.00;99.90;;;;;;5075405;28;20230;-44
2022/07/24 00:40:25;;;;;;;4.53;3.33;;;16.90;99.90;;;;;;5075788;28;20203;-42
2022/07/24 00:42:51;;;;;;;5.93;4.00;;;16.90;99.90;;;;;;5075263;28;20187;-47
2022/07/24 00:45:18;;;;;;;4.73;3.70;;;16.80;99.90;;;;;;5075410;28;20184;-43
2022/07/24 00:47:43;;;;;;;3.97;3.00;;;16.80;99.90;;;;;;5075278;28;20210;-44
2022/07/24 00:50:10;;;;;;;3.67;3.13;;;16.80;99.90;;;;;;5075175;28;20199;-44
2022/07/24 00:52:35;;;;;;;5.57;3.80;;;16.70;99.90;;;;;;5075356;28;20263;-43
2022/07/24 00:55:02;;;;;;;4.07;2.97;;;16.70;99.90;;;;;;5075208;28;20203;-41
2022/07/24 00:57:27;;;;;;;4.77;3.07;;;16.70;99.90;;;;;;5075055;28;20194;-43
2022/07/24 00:59:53;;;;;;;5.93;4.07;;;16.60;99.90;;;;;;5075098;28;20675;-44
2022/07/24 01:02:18;;;;;;;5.40;3.27;;;16.60;99.90;;;;;;5074799;28;20215;-44
2022/07/24 01:04:44;;;;;;;4.93;3.67;;;16.60;99.90;;;;;;5074835;28;20180;-42
2022/07/24 01:07:11;;;;;;;7.17;3.70;;;16.50;99.90;;;;;;5073374;28;20210;-46
2022/07/24 01:09:36;;;;;;;5.43;3.30;;;16.50;99.90;;;;;;5074637;28;20252;-45
2022/07/24 01:12:03;;;;;;;4.70;3.80;;;16.50;99.90;;;;;;5074570;28;20262;-44
2022/07/24 01:14:32;;;;;;;6.70;3.90;;;16.40;99.90;;;;;;5074227;28;20179;-44
2022/07/24 01:16:57;;;;;;;6.97;4.00;;;16.40;99.90;;;;;;5074354;28;20534;-44
2022/07/24 01:19:23;;;;;;;6.33;3.90;;;16.40;99.90;;;;;;5074241;28;20199;-44
2022/07/24 01:21:51;;;;;;;4.73;4.00;;;16.40;99.90;;;;;;5074313;28;20270;-44
2022/07/24 01:24:18;;;;;;;5.50;3.73;;;16.40;99.90;;;;;;5074215;28;20187;-45
2022/07/24 01:26:44;;;;;;;6.30;4.17;;;16.40;99.90;;;;;;5074368;28;20186;-44
2022/07/24 01:29:09;;;;;;;6.80;3.83;;;16.40;99.90;;;;;;5073867;28;20176;-44
2022/07/24 01:31:35;;;;;;;4.70;3.40;;;16.30;99.90;;;;;;5074062;28;20639;-42
2022/07/24 01:34:00;;;;;;;4.13;3.47;;;16.30;99.90;;;;;;5074294;28;20225;-44
2022/07/24 01:36:26;;;;;;;5.97;4.07;;;16.30;99.90;;;;;;5074219;28;20179;-43
2022/07/24 01:38:52;;;;;;;6.60;3.83;;;16.30;99.90;;;;;;5073683;28;20195;-45
2022/07/24 01:41:17;;;;;;;5.10;4.30;;;16.20;99.90;;;;;;5073776;28;20199;-43
2022/07/24 01:43:43;;;;;;;8.40;4.40;;;16.20;99.90;;;;;;5073730;28;20179;-45
2022/07/24 01:46:09;;;;;;;5.97;3.93;;;16.20;99.90;;;;;;5073697;28;20635;-45
2022/07/24 01:48:35;;;;;;;4.90;3.70;;;16.20;99.90;;;;;;5074997;28;20579;-42
2022/07/24 01:51:01;;;;;;;5.03;4.03;;;16.10;99.90;;;;;;5073708;28;20195;-44
2022/07/24 01:53:26;;;;;;;5.73;4.00;;;16.10;99.90;;;;;;5074306;28;20175;-43
2022/07/24 01:55:53;;;;;;;4.50;3.77;;;16.20;99.90;;;;;;5072669;28;20184;-45
2022/07/24 01:58:19;;;;;;;8.97;4.53;;;16.10;99.90;;;;;;5073905;28;20233;-44
2022/07/24 02:00:45;;;;;;;4.60;4.20;;;16.10;99.90;;;;;;5073645;28;20199;-43
2022/07/24 02:03:10;;;;;;;5.83;4.53;;;16.00;99.90;;;;;;5073892;28;20699;-43
2022/07/24 02:05:36;;;;;;;7.10;4.53;;;16.00;99.90;;;;;;5073876;28;20187;-42
2022/07/24 02:08:01;;;;;;;6.87;4.77;;;16.00;99.90;;;;;;5073860;28;20242;-44
2022/07/24 02:10:28;;;;;;;7.03;4.57;;;16.00;99.90;;;;;;5073750;28;20290;-44
2022/07/24 02:12:55;;;;;;;7.57;5.00;;;16.00;99.90;;;;;;5073635;28;20225;-44
2022/07/24 02:15:21;;;;;;;10.33;4.67;;;16.00;99.90;;;;;;5073745;28;20171;-44
2022/07/24 02:17:51;;;;;;;5.57;4.60;;;16.00;99.90;;;;;;5074015;28;20657;-44
2022/07/24 02:20:18;;;;;;;7.43;5.10;;;15.90;99.90;;;;;;5074011;28;20294;-46
2022/07/24 02:22:44;;;;;;;8.07;5.33;;;15.90;99.90;;;;;;5073523;28;20183;-43
2022/07/24 02:25:11;;;;;;;10.53;5.00;;;15.90;99.90;;;;;;5076379;28;20183;-44
2022/07/24 02:27:37;;;;;;;8.63;4.50;;;16.00;99.90;;;;;;5073213;28;20662;-44
2022/07/24 02:30:09;;;;;;;9.17;5.03;;;15.90;99.90;;;;;;5073325;28;20195;-42
2022/07/24 02:32:35;;;;;;;7.13;5.17;;;16.00;99.90;;;;;;5073622;28;20183;-43
2022/07/24 02:35:01;;;;;;;7.47;4.90;;;16.00;99.90;;;;;;5072151;28;20180;-43
2022/07/24 02:37:26;;;;;;;6.30;4.83;;;16.10;99.90;;;;;;5073339;28;20191;-43
2022/07/24 02:39:52;;;;;;;6.03;4.87;;;16.00;99.90;;;;;;5073555;28;20213;-43
2022/07/24 02:42:19;;;;;;;6.73;4.87;;;16.00;99.90;;;;;;5075755;28;20176;-44
2022/07/24 02:44:45;;;;;;;7.50;4.90;;;16.00;99.90;;;;;;5077410;28;20266;-44
2022/07/24 02:47:10;;;;;;;6.17;4.90;;;15.90;99.90;;;;;;5077683;28;20295;-41
2022/07/24 02:49:36;;;;;;;9.87;5.53;;;15.90;99.90;;;;;;5077123;28;20651;-43
2022/07/24 02:52:03;;;;;;;7.00;5.10;;;15.90;99.90;;;;;;5077444;28;20533;-44
2022/07/24 02:54:28;;;;;;;8.03;5.63;;;15.80;99.90;;;;;;5077359;28;20221;-43
2022/07/24 02:56:54;;;;;;;10.37;5.77;;;15.80;99.90;;;;;;5077337;28;20184;-44
2022/07/24 02:59:19;;;;;;;9.00;5.33;;;15.80;99.90;;;;;;5077159;28;20581;-44
2022/07/24 03:01:45;;;;;;;6.43;5.07;;;15.80;99.90;;;;;;5076267;28;20183;-44
2022/07/24 03:04:11;;;;;;;7.77;5.87;;;15.80;99.90;;;;;;5077039;28;20263;-44
2022/07/24 03:06:36;;;;;;;6.10;5.30;;;15.80;99.90;;;;;;5075568;28;20179;-44
2022/07/24 03:09:03;;;;;;;9.33;5.20;;;15.80;99.90;;;;;;5076949;28;20306;-42
2022/07/24 03:11:28;;;;;;;10.97;5.27;;;15.70;99.90;;;;;;5076857;28;20203;-43
2022/07/24 03:13:54;;;;;;;10.30;5.20;;;15.70;99.90;;;;;;5076615;28;20175;-44
2022/07/24 03:16:20;;;;;;;10.40;5.20;;;15.70;99.90;;;;;;5076504;28;20273;-44
2022/07/24 03:18:45;;;;;;;9.07;4.57;;;15.70;99.90;;;;;;5076582;28;20252;-43
2022/07/24 03:21:13;;;;;;;8.80;5.27;;;15.70;99.90;;;;;;5077050;28;20571;-43
2022/07/24 03:23:39;;;;;;;6.97;4.93;;;15.60;99.90;;;;;;5076928;28;20179;-43
2022/07/24 03:26:06;;;;;;;7.63;5.07;;;15.60;99.90;;;;;;5076667;28;20230;-43
2022/07/24 03:28:31;;;;;;;10.13;5.40;;;15.60;99.90;;;;;;5076426;28;20273;-44
2022/07/24 03:30:57;;;;;;;6.30;5.07;;;15.60;99.90;;;;;;5076601;28;20200;-44
2022/07/24 03:33:22;;;;;;;5.23;4.57;;;15.50;99.90;;;;;;5076957;28;20200;-43
2022/07/24 03:35:48;;;;;;;6.93;4.70;;;15.50;99.90;;;;;;5076582;28;20543;-44
2022/07/24 03:38:14;;;;;;;6.63;4.83;;;15.50;99.90;;;;;;5076743;28;20202;-42
2022/07/24 03:40:40;;;;;;;8.33;5.30;;;15.50;99.90;;;;;;5076471;28;20215;-46
2022/07/24 03:43:05;;;;;;;7.17;4.97;;;15.40;99.90;;;;;;5076455;28;20191;-43
2022/07/24 03:45:31;;;;;;;8.60;5.00;;;15.40;99.90;;;;;;5076360;28;20218;-43
2022/07/24 03:47:56;;;;;;;7.23;5.23;;;15.40;99.90;;;;;;5076048;28;20211;-43
2022/07/24 03:50:22;;;;;;;8.60;5.20;;;15.40;99.90;;;;;;5076127;28;20200;-44
2022/07/24 03:52:47;;;;;;;9.93;5.57;;;15.40;99.90;;;;;;5075616;28;20184;-45
2022/07/24 03:55:13;;;;;;;7.43;5.80;;;15.30;99.90;;;;;;5076608;28;20180;-43
2022/07/24 03:57:38;;;;;;;8.37;5.60;;;15.30;99.90;;;;;;5076317;28;20179;-45
2022/07/24 04:00:05;;;;;;;8.70;5.13;;;15.30;99.90;;;;;;5077123;28;20210;-45
2022/07/24 04:02:31;;;;;;;8.03;5.37;;;15.40;99.90;;;;;;5077035;28;20184;-42
2022/07/24 04:04:56;;;;;;;6.53;5.67;;;15.40;99.90;;;;;;5076496;28;20186;-42
2022/07/24 04:07:22;;;;;;;9.67;6.43;;;15.40;99.90;;;;;;5076521;28;20207;-45
2022/07/24 04:09:48;;;;;;;6.87;5.17;;;15.40;99.90;;;;;;5076705;28;20696;-43
2022/07/24 04:12:13;;;;;;;10.20;5.30;;;15.30;99.90;;;;;;5076488;28;20259;-44
2022/07/24 04:14:39;;;;;;;6.23;5.57;;;15.30;99.90;;;;;;5076765;28;20643;-43
2022/07/24 04:17:05;;;;;;;10.83;5.23;;;15.30;99.90;;;;;;5076160;28;20635;-43
2022/07/24 04:19:31;;;;;;;8.33;6.00;;;15.30;99.90;;;;;;5077234;28;20278;-42
2022/07/24 04:21:57;;;;;;;8.57;6.37;;;15.30;99.90;;;;;;5076703;28;20226;-44
2022/07/24 04:24:23;;;;;;;6.83;5.77;;;15.30;99.90;;;;;;5076038;28;20591;-43
2022/07/24 04:26:48;;;;;;;6.70;6.00;;;15.40;99.90;;;;;;5076178;28;20218;-44
2022/07/24 04:29:14;;;;;;;9.33;6.13;;;15.40;99.90;;;;;;5076395;28;20221;-44
2022/07/24 04:31:40;;;;;;;10.53;6.17;;;15.40;99.90;;;;;;5076312;28;20265;-42
2022/07/24 04:34:05;;;;;;;10.67;5.60;;;15.40;99.90;;;;;;5076218;28;20187;-40
2022/07/24 04:36:31;;;;;;;13.30;5.40;;;15.40;99.90;;;;;;5075324;28;20183;-39
2022/07/24 04:38:57;;;;;;;11.53;5.50;;;15.40;99.90;;;;;;5075191;28;20252;-38
2022/07/24 04:41:23;;;;;;;10.40;5.67;;;15.50;99.90;;;;;;5075160;28;20283;-38
2022/07/24 04:43:49;;;;;;;8.93;5.27;;;15.50;99.90;;;;;;5075415;28;20195;-37
2022/07/24 04:46:15;;;;;;;9.80;5.40;;;15.50;99.90;;;;;;5075212;28;20190;-39
2022/07/24 04:48:41;;;;;;;9.07;6.13;;;15.50;99.90;;;;;;5074856;28;20253;-40
2022/07/24 04:51:06;;;;;;;6.63;5.13;;;15.60;99.90;;;;;;5074934;28;20207;-40
2022/07/24 04:53:32;;;;;;;6.73;5.20;;;15.60;99.90;;;;;;5075196;28;20184;-40
2022/07/24 04:55:58;;;;;;;12.03;5.53;;;15.70;99.90;;;;;;5075129;28;20211;-41
2022/07/24 04:58:25;;;;;;;6.53;5.70;;;15.80;99.90;;;;;;5074778;28;20772;-39
2022/07/24 05:00:51;;;;;;;7.73;5.93;;;15.80;99.90;;;;;;5074763;28;20238;-41
2022/07/24 05:03:16;;;;;;;7.80;5.60;;;15.90;99.90;;;;;;5073240;28;20227;-39
2022/07/24 05:05:42;;;;;;;8.13;6.00;;;15.90;99.90;;;;;;5074323;28;20186;-36
2022/07/24 05:08:07;;;;;;;7.60;6.00;;;16.00;99.90;;;;;;5074492;28;20692;-37
2022/07/24 05:10:33;;;;;;;8.50;6.40;;;16.00;99.90;;;;;;5074463;28;20188;-38
2022/07/24 05:12:59;;;;;;;9.97;6.70;;;16.20;99.90;;;;;;5074679;28;20172;-38
2022/07/24 05:15:24;;;;;;;7.77;5.73;;;16.20;99.90;;;;;;5074579;28;20199;-36
2022/07/24 05:17:50;;;;;;;8.17;6.47;;;16.30;99.90;;;;;;5074438;28;20179;-37
2022/07/24 05:20:15;;;;;;;8.70;6.17;;;16.40;99.90;;;;;;5074763;28;20672;-37
2022/07/24 05:22:41;;;;;;;11.83;6.30;;;16.50;99.90;;;;;;5074674;28;20671;-36
2022/07/24 05:25:07;;;;;;;10.57;6.53;;;16.50;99.90;;;;;;5074241;28;20187;-37
2022/07/24 05:27:33;;;;;;;8.67;6.97;;;16.60;99.90;;;;;;5073289;28;20212;-37
2022/07/24 05:29:58;;;;;;;9.20;6.27;;;16.70;99.90;;;;;;5074399;28;20199;-39
2022/07/24 05:32:24;;;;;;;10.60;6.50;;;16.80;99.90;;;;;;5075134;28;20214;-39
2022/07/24 05:34:49;;;;;;;10.10;6.73;;;16.80;99.90;;;;;;5076079;28;20624;-37
2022/07/24 05:37:15;;;;;;;8.53;7.17;;;16.90;99.90;;;;;;5075810;28;20183;-37
2022/07/24 05:39:41;;;;;;;8.63;6.70;;;17.00;99.90;;;;;;5075058;28;20664;-38
2022/07/24 05:42:06;;;;;;;9.33;6.47;;;17.10;99.90;;;;;;5074438;28;20184;-37
2022/07/24 05:44:32;;;;;;;9.83;6.50;;;17.10;99.90;;;;;;5074710;28;20232;-38
2022/07/24 05:46:58;;;;;;;9.00;6.30;;;17.20;99.90;;;;;;5073978;28;20175;-36
2022/07/24 05:49:23;;;;;;;8.03;6.67;;;17.20;99.90;;;;;;5074033;28;20180;-37
2022/07/24 05:51:49;;;;;;;11.47;7.57;;;17.30;99.90;;;;;;5072636;28;20179;-36
2022/07/24 05:54:15;;;;;;;9.03;6.63;;;17.40;99.90;;;;;;5074041;28;20221;-37
2022/07/24 05:56:41;;;;;;;8.00;6.57;;;17.50;99.90;;;;;;5073979;28;20635;-40
2022/07/24 05:59:07;;;;;;;8.63;6.90;;;17.50;99.90;;;;;;5074120;28;20183;-42
2022/07/24 06:01:32;;;;;;;9.07;7.20;;;17.70;99.90;;;;;;5073842;28;20191;-43
2022/07/24 06:03:58;;;;;;;8.23;7.27;;;17.80;99.90;;;;;;5074061;28;20244;-44
2022/07/24 06:06:24;;;;;;;11.57;7.43;;;17.90;99.90;;;;;;5074106;28;20263;-42
2022/07/24 06:08:50;;;;;;;10.77;7.07;;;18.00;99.90;;;;;;5073623;28;20317;-41
2022/07/24 06:11:17;;;;;;;12.13;8.20;;;18.10;99.90;;;;;;5073902;28;20203;-43
2022/07/24 06:13:43;;;;;;;9.77;8.47;;;18.20;99.90;;;;;;5073484;28;20574;-43
2022/07/24 06:16:08;;;;;;;15.40;9.97;;;18.40;99.90;;;;;;5073316;28;20201;-44
2022/07/24 06:18:34;;;;;;;13.87;10.37;;;18.60;99.90;;;;;;5073566;28;20179;-44
2022/07/24 06:20:59;;;;;;;14.10;11.17;;;18.70;99.90;;;;;;5073418;28;20309;-45
2022/07/24 06:23:25;;;;;;;18.80;11.37;;;18.90;99.90;;;;;;5073494;28;20493;-43
2022/07/24 06:25:50;;;;;;;17.70;12.20;;;19.10;99.90;;;;;;5073380;28;20198;-44
2022/07/24 06:28:16;;;;;;;18.57;12.67;;;19.20;99.90;;;;;;5073560;28;20211;-44
2022/07/24 06:30:42;;;;;;;16.90;12.37;;;19.40;99.90;;;;;;5073347;28;20616;-44
2022/07/24 06:33:07;;;;;;;20.57;14.17;;;19.60;99.90;;;;;;5073618;28;20230;-43
2022/07/24 06:35:33;;;;;;;21.90;14.30;;;19.80;99.90;;;;;;5073298;28;20265;-43
2022/07/24 06:38:09;;;;;;;26.07;15.93;;;19.90;99.90;;;;;;5073318;28;20199;-43
2022/07/24 06:40:39;;;;;;;22.60;15.10;;;20.20;99.90;;;;;;5071977;28;20211;-44
2022/07/24 06:43:05;;;;;;;21.00;15.97;;;20.40;99.90;;;;;;5071979;28;20221;-43
2022/07/24 06:45:32;;;;;;;21.27;16.37;;;20.70;99.90;;;;;;5071880;28;20546;-43
2022/07/24 06:48:05;;;;;;;24.30;16.63;;;20.80;99.90;;;;;;5071908;28;20206;-43
2022/07/24 06:50:35;;;;;;;24.47;17.07;;;21.10;99.90;;;;;;5055547;28;20203;-43
2022/07/24 06:53:03;;;;;;;21.93;16.80;;;21.30;99.90;;;;;;5072049;28;20199;-43
2022/07/24 06:55:38;;;;;;;25.83;16.57;;;21.50;99.90;;;;;;5072158;28;20183;-42
2022/07/24 06:58:06;;;;;;;22.23;16.00;;;21.60;99.90;;;;;;5056035;28;20550;-43
2022/07/24 07:00:32;;;;;;;20.83;16.13;;;21.90;99.90;;;;;;5071627;28;20200;-45
2022/07/24 07:03:00;;;;;;;22.20;16.60;;;22.10;99.90;;;;;;5071830;28;20270;-42
2022/07/24 07:05:47;;;;;;;24.00;15.70;;;22.40;99.90;;;;;;5071662;28;20219;-43
2022/07/24 07:08:14;;;;;;;21.47;14.73;;;22.60;99.90;;;;;;5069702;28;20218;-44
2022/07/24 07:10:42;;;;;;;18.17;14.67;;;22.60;99.90;;;;;;5071960;28;20311;-46
2022/07/24 07:13:14;;;;;;;18.90;14.10;;;22.70;99.90;;;;;;5071895;28;20188;-43
2022/07/24 07:15:45;;;;;;;21.50;14.37;;;22.90;99.90;;;;;;5071738;28;20210;-45
2022/07/24 07:18:13;;;;;;;19.23;14.13;;;23.10;99.90;;;;;;5072037;28;20180;-43
2022/07/24 07:20:41;;;;;;;22.30;13.50;;;23.30;99.90;;;;;;5071743;28;20675;-43
2022/07/24 07:23:12;;;;;;;20.80;12.83;;;23.50;99.90;;;;;;5071836;28;20192;-44
2022/07/24 07:25:38;;;;;;;14.50;12.43;;;23.70;99.90;;;;;;5072323;28;20194;-44
2022/07/24 07:28:04;;;;;;;15.60;13.63;;;24.00;99.90;;;;;;5073650;28;20215;-39
2022/07/24 07:30:30;;;;;;;18.30;13.97;;;24.10;99.90;;;;;;5076637;28;20287;-39
2022/07/24 07:32:55;;;;;;;18.57;13.07;;;24.20;99.90;;;;;;5076389;28;20259;-38
2022/07/24 07:35:22;;;;;;;27.90;13.23;;;24.20;99.90;;;;;;5076301;28;20183;-39
2022/07/24 07:37:51;;;;;;;15.50;11.90;;;24.30;99.90;;;;;;5076335;28;20191;-40
2022/07/24 07:40:17;;;;;;;16.73;12.30;;;24.40;99.90;;;;;;5076144;28;20229;-39
2022/07/24 07:42:42;;;;;;;13.80;11.90;;;24.50;99.90;;;;;;5076120;28;20192;-40
2022/07/24 07:45:08;;;;;;;15.17;12.83;;;24.80;99.90;;;;;;5076144;28;20186;-39
2022/07/24 07:47:36;;;;;;;13.83;9.70;;;24.90;99.90;;;;;;5076577;28;20211;-40
2022/07/24 07:50:03;;;;;;;16.77;9.37;;;25.10;99.90;;;;;;5076186;28;20613;-39
2022/07/24 07:52:29;;;;;;;10.67;9.40;;;25.10;99.90;;;;;;5076944;28;20604;-40
2022/07/24 07:54:54;;;;;;;10.87;9.23;;;25.30;99.90;;;;;;5075979;28;20193;-39
2022/07/24 07:57:20;;;;;;;9.33;7.73;;;25.50;99.90;;;;;;5074599;28;20242;-39
2022/07/24 07:59:46;;;;;;;9.77;7.73;;;25.60;99.90;;;;;;5076289;28;20269;-39
2022/07/24 08:02:11;;;;;;;10.13;7.17;;;25.80;99.90;;;;;;5076468;28;20257;-44
2022/07/24 08:04:37;;;;;;;9.37;7.00;;;25.90;99.90;;;;;;5076450;28;20643;-44
2022/07/24 08:07:03;;;;;;;7.50;6.30;;;25.90;99.90;;;;;;5075996;28;20190;-44
2022/07/24 08:09:28;;;;;;;6.07;5.47;;;26.00;99.90;;;;;;5075791;28;20207;-44
2022/07/24 08:11:54;;;;;;;5.77;4.97;;;26.10;99.90;;;;;;5076286;28;20183;-45
2022/07/24 08:14:19;;;;;;;6.60;5.50;;;26.20;99.90;;;;;;5075813;28;20187;-43
2022/07/24 08:16:45;;;;;;;8.23;5.77;;;26.20;99.90;;;;;;5075959;28;20255;-44
2022/07/24 08:19:10;;;;;;;6.67;4.90;;;26.40;99.90;;;;;;5075798;28;20612;-44
2022/07/24 08:21:36;;;;;;;7.90;5.47;;;26.40;99.90;;;;;;5076737;28;20653;-44
2022/07/24 08:24:02;;;;;;;9.40;6.33;;;26.50;99.90;;;;;;5076155;28;20184;-45
2022/07/24 08:26:30;;;;;;;9.00;5.60;;;26.60;99.90;;;;;;5075824;28;20191;-46
2022/07/24 08:28:57;;;;;;;6.87;5.77;;;26.60;99.90;;;;;;5076054;28;20271;-45
2022/07/24 08:31:26;;;;;;;6.60;5.73;;;26.80;99.90;;;;;;5076141;28;20188;-45
2022/07/24 08:33:52;;;;;;;7.83;5.73;;;26.90;99.90;;;;;;5081570;22;20235;-46
2022/07/24 08:36:17;;;;;;;7.47;6.30;;;27.10;99.90;;;;;;5075641;28;20199;-44
2022/07/24 08:38:43;;;;;;;8.20;5.60;;;27.20;99.90;;;;;;5075593;28;20176;-44
2022/07/24 08:41:09;;;;;;;6.10;5.43;;;27.20;99.90;;;;;;5073851;28;20206;-46
2022/07/24 08:43:34;;;;;;;7.03;5.80;;;27.40;99.90;;;;;;5075451;28;20211;-45
2022/07/24 08:46:02;;;;;;;6.60;5.80;;;27.50;99.90;;;;;;5073628;28;20183;-45
2022/07/24 08:48:28;;;;;;;6.33;5.63;;;27.60;99.90;;;;;;5075099;28;20219;-45
2022/07/24 08:50:54;;;;;;;6.20;5.60;;;27.60;99.90;;;;;;5074767;28;20199;-44
2022/07/24 08:53:24;;;;;;;10.57;6.40;;;27.70;99.90;;;;;;5075123;28;20172;-44
2022/07/24 08:55:50;;;;;;;7.80;5.50;;;27.60;99.90;;;;;;5075343;28;20198;-45
2022/07/24 08:58:15;;;;;;;7.80;5.03;;;27.60;99.90;;;;;;5074690;28;20171;-44
2022/07/24 09:00:41;;;;;;;9.00;5.50;;;27.70;99.90;;;;;;5074524;28;20199;-45
2022/07/24 09:03:07;;;;;;;8.17;5.47;;;27.80;99.90;;;;;;5074564;28;20255;-46
2022/07/24 09:05:34;;;;;;;10.53;5.63;;;27.90;99.90;;;;;;5074499;28;20552;-45
2022/07/24 09:08:11;;;;;;;7.50;5.60;;;27.90;99.90;;;;;;5074900;28;20205;-46
2022/07/24 09:10:37;;;;;;;5.83;4.77;;;27.90;99.90;;;;;;5074265;28;20274;-44
2022/07/24 09:13:16;;;;;;;6.60;5.10;;;28.00;99.90;;;;;;5074532;28;20176;-47
2022/07/24 09:15:45;;;;;;;5.87;5.07;;;28.00;99.90;;;;;;5075010;28;20160;-43
2022/07/24 09:18:34;;;;;;;6.60;4.60;;;28.20;99.90;;;;;;5075370;28;20569;-45
2022/07/24 09:21:13;;;;;;;6.23;4.90;;;28.20;99.90;;;;;;5075375;28;20203;-45
2022/07/24 09:23:40;;;;;;;7.20;4.47;;;28.30;99.90;;;;;;5075280;28;20174;-45
2022/07/24 09:26:06;;;;;;;6.37;4.67;;;28.40;99.90;;;;;;5074783;28;20183;-43
2022/07/24 09:28:48;;;;;;;6.77;4.27;;;28.50;99.90;;;;;;5074633;28;20213;-44
2022/07/24 09:31:13;;;;;;;5.33;4.50;;;28.60;99.90;;;;;;5074466;28;20211;-44
2022/07/24 09:33:39;;;;;;;7.13;4.53;;;28.70;99.90;;;;;;5074175;28;20202;-45
2022/07/24 09:36:13;;;;;;;5.57;4.47;;;28.80;99.90;;;;;;5074504;28;20199;-46
2022/07/24 09:38:46;;;;;;;6.95;4.60;;;28.90;99.90;;;;;;5074223;28;20171;-45
2022/07/24 09:41:12;;;;;;;6.60;4.77;;;29.00;99.90;;;;;;5074415;28;20211;-46
2022/07/24 09:43:38;;;;;;;6.75;4.35;;;29.10;99.90;;;;;;5074304;28;20227;-44
2022/07/24 09:46:09;;;;;;;5.97;4.22;;;29.00;99.90;;;;;;5080315;22;20231;-47
2022/07/24 09:48:50;;;;;;;6.10;4.20;;;29.00;99.90;;;;;;5074980;28;20200;-46
2022/07/24 09:51:17;;;;;;;4.90;4.35;;;28.90;99.90;;;;;;5074193;28;20196;-44
2022/07/24 09:53:45;;;;;;;5.88;4.43;;;28.90;99.90;;;;;;5075373;28;20176;-45
2022/07/24 09:56:13;;;;;;;6.47;4.25;;;29.00;99.90;;;;;;5075045;28;20736;-44
2022/07/24 09:58:44;;;;;;;5.38;4.25;;;29.00;99.90;;;;;;5075290;28;20184;-45
2022/07/24 10:01:11;;;;;;;5.55;4.35;;;29.00;99.90;;;;;;5075129;28;20203;-46
2022/07/24 10:03:39;;;;;;;7.13;4.22;;;29.10;99.90;;;;;;5075452;28;20256;-45
2022/07/24 10:06:07;;;;;;;5.50;4.38;;;29.20;99.90;;;;;;5075381;28;20199;-43
2022/07/24 10:08:34;;;;;;;6.43;4.75;;;29.30;99.90;;;;;;5057062;28;20211;-45
2022/07/24 10:11:01;;;;;;;5.07;4.10;;;29.40;99.90;;;;;;5075174;28;20207;-45
2022/07/24 10:13:27;;;;;;;4.75;4.25;;;29.40;99.90;;;;;;5074845;28;20589;-45
2022/07/24 10:16:11;;;;;;;4.47;3.88;;;29.50;99.90;;;;;;5074306;28;20510;-45
2022/07/24 10:18:57;;;;;;;7.05;4.15;;;29.60;99.90;;;;;;5074661;28;20163;-46
2022/07/24 10:21:35;;;;;;;5.07;4.05;;;29.70;99.90;;;;;;5074855;28;20206;-45
2022/07/24 10:24:12;;;;;;;5.20;4.03;;;29.70;99.90;;;;;;5074773;28;20224;-46
2022/07/24 10:26:48;;;;;;;6.38;3.25;;;29.80;99.90;;;;;;5056246;28;20262;-44
2022/07/24 10:29:15;;;;;;;7.20;3.92;;;29.90;99.90;;;;;;5056864;28;20199;-39
2022/07/24 10:31:44;;;;;;;4.72;3.85;;;30.10;99.90;;;;;;5073260;28;20176;-39
2022/07/24 10:34:38;;;;;;;4.40;4.00;;;30.10;99.90;;;;;;5073355;28;20179;-40
2022/07/24 10:37:26;;;;;;;5.25;3.90;;;30.10;99.90;;;;;;5073296;28;20174;-40
2022/07/24 10:40:18;;;;;;;5.38;3.83;;;30.30;99.90;;;;;;5073279;28;20206;-39
2022/07/24 10:43:05;;;;;;;7.07;3.80;;;30.30;99.90;;;;;;5073241;28;20769;-39
2022/07/24 10:45:31;;;;;;;3.80;3.50;;;30.40;99.90;;;;;;5073181;28;20328;-40
2022/07/24 10:47:57;;;;;;;3.83;3.53;;;30.40;99.90;;;;;;5073398;28;20590;-41
2022/07/24 10:50:23;;;;;;;5.32;3.33;;;30.40;99.90;;;;;;5073472;28;20191;-39
2022/07/24 10:52:48;;;;;;;4.20;3.80;;;30.50;99.90;;;;;;5073098;28;20582;-40
2022/07/24 10:55:34;;;;;;;6.90;3.53;;;30.50;99.90;;;;;;5073147;28;20176;-39
2022/07/24 10:58:01;;;;;;;5.10;3.53;;;30.50;99.90;;;;;;5073404;28;20183;-42
2022/07/24 11:00:30;;;;;;;4.53;4.13;;;30.40;99.90;;;;;;5073407;28;20191;-40
2022/07/24 11:03:05;;;;;;;5.40;3.30;;;30.50;99.90;;;;;;5074956;28;20201;-40
2022/07/24 11:05:34;;;;;;;5.68;3.40;;;30.40;99.90;;;;;;5077013;28;20187;-41
2022/07/24 11:08:12;;;;;;;4.03;3.30;;;30.50;99.90;;;;;;5076672;28;20671;-40
2022/07/24 11:10:52;;;;;;;3.78;3.15;;;30.60;99.90;;;;;;5077025;28;20663;-41
2022/07/24 11:13:43;;;;;;;4.95;3.47;;;30.60;99.90;;;;;;5077767;28;20178;-39
2022/07/24 11:16:14;;;;;;;4.55;3.75;;;30.60;99.90;;;;;;5051986;28;20180;-41
2022/07/24 11:19:01;;;;;;;6.75;3.50;;;30.60;99.90;;;;;;5077064;28;20610;-42
2022/07/24 11:21:42;;;;;;;10.45;4.13;;;30.70;99.90;;;;;;5076577;28;20211;-42
2022/07/24 11:24:13;;;;;;;5.05;3.67;;;30.80;99.90;;;;;;5077294;28;20641;-42
2022/07/24 11:26:46;;;;;;;5.80;3.90;;;30.80;99.90;;;;;;5077659;28;20286;-41
2022/07/24 11:29:27;;;;;;;4.85;3.10;;;30.90;99.90;;;;;;5077249;28;20191;-40
2022/07/24 11:31:56;;;;;;;3.50;3.20;;;31.10;99.90;;;;;;5077028;28;20175;-45
2022/07/24 11:34:22;;;;;;;4.28;3.33;;;31.20;99.90;;;;;;5076806;28;20175;-45
2022/07/24 11:36:53;;;;;;;4.43;3.40;;;31.30;99.90;;;;;;5076661;28;20571;-43
2022/07/24 11:39:20;;;;;;;4.82;3.10;;;31.40;99.90;;;;;;5076580;28;20152;-43
2022/07/24 11:41:52;;;;;;;3.63;3.00;;;31.50;99.90;;;;;;5076985;28;20592;-43
2022/07/24 11:44:36;;;;;;;5.00;2.83;;;31.50;99.90;;;;;;5076203;28;20644;-45
2022/07/24 11:47:13;;;;;;;3.83;3.00;;;31.60;99.20;;;;;;5076476;28;20262;-45
2022/07/24 11:49:49;;;;;;;3.55;3.25;;;31.60;99.90;;;;;;5076872;28;20199;-46
2022/07/24 11:52:22;;;;;;;4.90;3.08;;;31.70;99.90;;;;;;5077313;28;20235;-46
2022/07/24 11:54:53;;;;;;;4.10;2.88;;;31.80;99.90;;;;;;5076658;28;20526;-43
2022/07/24 11:57:25;;;;;;;3.50;2.80;;;31.80;99.90;;;;;;5076644;28;20687;-45
2022/07/24 11:59:51;;;;;;;3.05;2.80;;;31.90;99.40;;;;;;5076425;28;20686;-44
2022/07/24 12:02:19;;;;;;;3.83;2.88;;;31.90;99.30;;;;;;5076210;28;20191;-45
2022/07/24 12:04:45;;;;;;;3.50;2.90;;;31.90;98.00;;;;;;5058421;28;20662;-46
2022/07/24 12:07:17;;;;;;;4.20;3.38;;;32.00;99.90;;;;;;5076070;28;20719;-46
2022/07/24 12:09:51;;;;;;;8.27;3.60;;;32.00;99.90;;;;;;5075933;28;20246;-45
2022/07/24 12:12:18;;;;;;;6.22;3.35;;;32.10;99.70;;;;;;5076801;28;20167;-46
2022/07/24 12:14:44;;;;;;;3.75;3.40;;;32.20;99.90;;;;;;5075822;28;20249;-42
2022/07/24 12:17:10;;;;;;;3.78;3.38;;;32.10;99.90;;;;;;5075715;28;20639;-42
2022/07/24 12:19:35;;;;;;;3.55;3.25;;;32.20;98.60;;;;;;5075248;28;20203;-40
2022/07/24 12:22:01;;;;;;;6.10;3.67;;;32.20;99.20;;;;;;5075315;28;20172;-40
2022/07/24 12:24:31;;;;;;;5.85;4.00;;;32.20;99.90;;;;;;5075354;28;20176;-41
2022/07/24 12:26:58;;;;;;;5.13;3.50;;;32.20;97.10;;;;;;5075547;28;20232;-40
2022/07/24 12:29:26;;;;;;;3.92;3.28;;;32.20;99.10;;;;;;5075257;28;20218;-41
2022/07/24 12:32:16;;;;;;;3.85;3.42;;;32.20;99.60;;;;;;5076443;28;20277;-40
2022/07/24 12:34:46;;;;;;;3.80;2.97;;;32.10;98.60;;;;;;5076338;28;20309;-38
2022/07/24 12:37:20;;;;;;;3.53;3.22;;;32.30;98.10;;;;;;5076100;28;20176;-41
2022/07/24 12:39:54;;;;;;;4.10;3.20;;;32.40;99.50;;;;;;5075465;28;20203;-41
2022/07/24 12:42:31;;;;;;;3.20;2.88;;;32.60;98.50;;;;;;5057119;28;20167;-41
2022/07/24 12:45:09;;;;;;;3.30;3.00;;;32.70;99.60;;;;;;5075110;28;20195;-41
2022/07/24 12:48:12;;;;;;;3.42;3.13;;;32.80;98.10;;;;;;5057023;28;20207;-41